createdAt,value
2022-10-20T00:04:19.559Z,101347.78
2022-10-20T00:06:46.121Z,101341.06
2022-10-20T00:09:12.642Z,101338.16
2022-10-20T00:11:39.129Z,101336.47
2022-10-20T00:14:05.983Z,101325.78
2022-10-20T00:16:34.719Z,101329.69
2022-10-20T00:19:01.088Z,101319.63
2022-10-20T00:21:28.098Z,101312.34
2022-10-20T00:23:54.547Z,101305.94
2022-10-20T00:26:21.897Z,101306.34
2022-10-20T00:28:48.954Z,101309.88
2022-10-20T00:31:15.369Z,101306.00
2022-10-20T00:33:41.838Z,101309.13
2022-10-20T00:36:10.773Z,101301.88
2022-10-20T00:38:37.197Z,101311.75
2022-10-20T00:41:04.079Z,101310.78
2022-10-20T00:43:48.247Z,101308.22
2022-10-20T00:46:19.648Z,101307.50
2022-10-20T00:48:47.993Z,101297.84
2022-10-20T00:51:16.169Z,101289.28
2022-10-20T00:53:44.224Z,101288.50
2022-10-20T00:56:11.148Z,101290.19
2022-10-20T00:58:37.850Z,101286.47
2022-10-20T01:01:04.480Z,101289.16
2022-10-20T01:03:34.996Z,101279.28
2022-10-20T01:06:01.378Z,101272.84
2022-10-20T01:08:27.853Z,101266.19
2022-10-20T01:11:06.730Z,101253.41
2022-10-20T01:13:39.082Z,101257.44
2022-10-20T01:16:34.961Z,101254.38
2022-10-20T01:19:03.217Z,101247.50
2022-10-20T01:21:29.697Z,101248.28
2022-10-20T01:24:03.491Z,101240.81
2022-10-20T01:26:48.779Z,101244.38
2022-10-20T01:29:30.166Z,101230.28
2022-10-20T01:32:07.476Z,101229.63
2022-10-20T01:34:39.070Z,101227.44
2022-10-20T01:37:07.877Z,101232.63
2022-10-20T01:39:37.269Z,101231.06
2022-10-20T01:42:07.193Z,101232.91
2022-10-20T01:44:34.568Z,101234.06
2022-10-20T01:47:01.101Z,101225.94
2022-10-20T01:49:27.552Z,101224.31
2022-10-20T01:51:53.930Z,101218.28
2022-10-20T01:54:21.792Z,101215.75
2022-10-20T01:56:57.251Z,101197.88
2022-10-20T01:59:37.987Z,101191.28
2022-10-20T02:02:34.127Z,101193.47
2022-10-20T02:05:27.511Z,101187.97
2022-10-20T02:08:03.636Z,101179.69
2022-10-20T02:10:34.802Z,101175.22
2022-10-20T02:13:04.249Z,101171.50
2022-10-20T02:15:31.795Z,101169.94
2022-10-20T02:18:03.393Z,101167.22
2022-10-20T02:20:30.917Z,101160.34
2022-10-20T02:22:58.452Z,101167.31
2022-10-20T02:25:25.888Z,101156.94
2022-10-20T02:27:53.224Z,101150.06
2022-10-20T02:30:20.049Z,101145.88
2022-10-20T02:32:49.509Z,101148.66
2022-10-20T02:35:23.261Z,101152.75
2022-10-20T02:37:49.752Z,101140.31
2022-10-20T02:40:16.259Z,101135.88
2022-10-20T02:42:43.663Z,101132.25
2022-10-20T02:45:11.054Z,101138.28
2022-10-20T02:47:38.296Z,101138.13
2022-10-20T02:50:05.585Z,101137.63
2022-10-20T02:52:31.947Z,101134.59
2022-10-20T02:54:58.373Z,101128.63
2022-10-20T02:57:24.732Z,101125.91
2022-10-20T02:59:51.070Z,101121.59
2022-10-20T03:02:17.433Z,101121.34
2022-10-20T03:04:43.959Z,101127.38
2022-10-20T03:07:11.938Z,101118.31
2022-10-20T03:09:38.545Z,101115.47
2022-10-20T03:12:05.061Z,101127.75
2022-10-20T03:14:31.437Z,101117.22
2022-10-20T03:16:57.812Z,101114.28
2022-10-20T03:19:24.187Z,101119.47
2022-10-20T03:21:50.564Z,101109.59
2022-10-20T03:24:17.169Z,101106.66
2022-10-20T03:26:43.511Z,101109.72
2022-10-20T03:29:09.891Z,101101.31
2022-10-20T03:31:36.316Z,101098.28
2022-10-20T03:34:02.960Z,101096.44
2022-10-20T03:36:29.306Z,101092.56
2022-10-20T03:38:55.663Z,101090.41
2022-10-20T03:41:22.008Z,101087.59
2022-10-20T03:43:48.378Z,101091.56
2022-10-20T03:46:14.727Z,101091.72
2022-10-20T03:48:41.150Z,101091.00
2022-10-20T03:51:09.039Z,101073.66
2022-10-20T03:53:35.436Z,101085.97
2022-10-20T03:56:05.733Z,101075.19
2022-10-20T03:58:32.116Z,101060.13
2022-10-20T04:00:58.516Z,101064.38
2022-10-20T04:03:24.922Z,101068.72
2022-10-20T04:05:51.329Z,101058.56
2022-10-20T04:08:17.752Z,101053.63
2022-10-20T04:10:44.125Z,101058.97
2022-10-20T04:13:10.483Z,101059.53
2022-10-20T04:15:36.953Z,101069.16
2022-10-20T04:18:03.356Z,101060.84
2022-10-20T04:20:29.782Z,101060.59
2022-10-20T04:22:56.199Z,101057.44
2022-10-20T04:25:22.643Z,101042.78
2022-10-20T04:27:49.075Z,101042.41
2022-10-20T04:30:15.580Z,101041.66
2022-10-20T04:32:42.010Z,101041.25
2022-10-20T04:35:08.936Z,101024.00
2022-10-20T04:37:35.643Z,101011.00
2022-10-20T04:40:03.276Z,101009.41
2022-10-20T04:42:29.639Z,101008.31
2022-10-20T04:47:22.335Z,101010.34
2022-10-20T04:49:48.816Z,101005.09
2022-10-20T04:52:15.245Z,101006.84
2022-10-20T04:54:41.631Z,100995.00
2022-10-20T04:57:08.563Z,100989.53
2022-10-20T04:59:34.965Z,100985.97
2022-10-20T05:02:01.354Z,100980.72
2022-10-20T05:04:27.831Z,100974.59
2022-10-20T05:06:54.239Z,100984.63
2022-10-20T05:09:20.697Z,100978.50
2022-10-20T05:11:47.097Z,100973.59
2022-10-20T05:14:13.461Z,100961.34
2022-10-20T05:16:39.899Z,100969.16
2022-10-20T05:19:06.328Z,100953.88
2022-10-20T05:21:33.287Z,100948.88
2022-10-20T05:24:01.471Z,100956.94
2022-10-20T05:26:29.513Z,100963.63
2022-10-20T05:28:56.014Z,100957.94
2022-10-20T05:31:23.472Z,100949.97
2022-10-20T05:33:51.182Z,100936.88
2022-10-20T05:36:21.508Z,100931.88
2022-10-20T05:38:48.268Z,100939.72
2022-10-20T05:41:15.764Z,100932.50
2022-10-20T05:43:42.611Z,100933.69
2022-10-20T05:46:09.319Z,100927.22
2022-10-20T05:48:40.660Z,100931.06
2022-10-20T05:51:13.723Z,100931.47
2022-10-20T05:53:41.652Z,100931.88
2022-10-20T05:56:08.846Z,100926.03
2022-10-20T05:58:35.550Z,100919.91
2022-10-20T06:01:06.297Z,100918.88
2022-10-20T06:03:32.924Z,100925.38
2022-10-20T06:05:59.850Z,100929.06
2022-10-20T06:08:29.332Z,100940.28
2022-10-20T06:10:55.723Z,100934.25
2022-10-20T06:13:22.126Z,100929.88
2022-10-20T06:15:49.147Z,100923.22
2022-10-20T06:18:15.542Z,100926.13
2022-10-20T06:20:41.899Z,100927.88
2022-10-20T06:23:08.268Z,100936.31
2022-10-20T06:25:34.658Z,100949.72
2022-10-20T06:28:01.212Z,100941.66
2022-10-20T06:30:27.640Z,100945.31
2022-10-20T06:32:55.081Z,100947.75
2022-10-20T06:35:21.636Z,100947.94
2022-10-20T06:37:48.011Z,100951.34
2022-10-20T06:40:14.468Z,100948.19
2022-10-20T06:42:40.827Z,100939.69
2022-10-20T06:45:07.555Z,100940.28
2022-10-20T06:47:34.104Z,100940.63
2022-10-20T06:50:00.859Z,100935.22
2022-10-20T06:52:27.258Z,100931.81
2022-10-20T06:54:53.613Z,100931.19
2022-10-20T06:57:20.261Z,100937.50
2022-10-20T06:59:47.771Z,100928.91
2022-10-20T07:02:14.295Z,100932.81
2022-10-20T07:04:40.782Z,100934.94
2022-10-20T07:07:07.146Z,100937.56
2022-10-20T07:09:33.528Z,100936.72
2022-10-20T07:11:59.930Z,100939.78
2022-10-20T07:14:26.311Z,100951.34
2022-10-20T07:16:52.697Z,100946.31
2022-10-20T07:19:19.190Z,100946.50
2022-10-20T07:21:46.025Z,100948.59
2022-10-20T07:24:12.685Z,100946.72
2022-10-20T07:26:39.904Z,100943.16
2022-10-20T07:29:06.345Z,100945.44
2022-10-20T07:31:37.142Z,100953.34
2022-10-20T07:34:20.425Z,100952.75
2022-10-20T07:36:50.572Z,100943.75
2022-10-20T07:39:17.245Z,100939.81
2022-10-20T07:41:45.591Z,100929.22
2022-10-20T07:44:12.079Z,100933.44
2022-10-20T07:46:38.559Z,100938.72
2022-10-20T07:51:51.483Z,100935.88
2022-10-20T07:54:18.351Z,100933.41
2022-10-20T07:56:46.081Z,100929.75
2022-10-20T07:59:12.573Z,100948.25
2022-10-20T08:01:39.115Z,100946.59
2022-10-20T08:04:05.508Z,100954.09
2022-10-20T08:06:31.981Z,100949.28
2022-10-20T08:08:58.726Z,100946.81
2022-10-20T08:11:25.220Z,100951.44
2022-10-20T08:13:51.933Z,100958.03
2022-10-20T08:16:19.710Z,100936.69
2022-10-20T08:18:50.681Z,100938.66
2022-10-20T08:21:18.517Z,100931.63
2022-10-20T08:23:46.616Z,100927.13
2022-10-20T08:26:13.786Z,100936.59
2022-10-20T08:28:40.155Z,100943.97
2022-10-20T08:31:07.069Z,100936.72
2022-10-20T08:33:34.192Z,100933.81
2022-10-20T08:36:01.808Z,100940.75
2022-10-20T08:38:28.201Z,100933.59
2022-10-20T08:40:54.556Z,100928.91
2022-10-20T08:43:21.280Z,100942.09
2022-10-20T08:45:47.631Z,100943.59
2022-10-20T08:48:20.382Z,100933.28
2022-10-20T08:50:48.446Z,100926.69
2022-10-20T08:53:15.150Z,100931.31
2022-10-20T08:55:43.421Z,100928.19
2022-10-20T08:58:14.776Z,100924.91
2022-10-20T09:00:42.040Z,100929.78
2022-10-20T09:03:14.417Z,100925.56
2022-10-20T09:05:43.115Z,100942.91
2022-10-20T09:08:09.731Z,100924.59
2022-10-20T09:10:36.230Z,100916.06
2022-10-20T09:13:06.322Z,100911.63
2022-10-20T09:15:32.870Z,100897.97
2022-10-20T09:18:00.886Z,100895.31
2022-10-20T09:20:33.818Z,100907.66
2022-10-20T09:23:04.065Z,100891.47
2022-10-20T09:25:31.118Z,100911.59
2022-10-20T09:27:57.667Z,100896.66
2022-10-20T09:30:33.205Z,100895.59
2022-10-20T09:32:59.951Z,100894.91
2022-10-20T09:35:35.643Z,100891.44
2022-10-20T09:38:03.873Z,100887.75
2022-10-20T09:40:30.881Z,100892.53
2022-10-20T09:43:00.536Z,100893.94
2022-10-20T09:45:31.530Z,100882.25
2022-10-20T09:48:16.642Z,100878.28
2022-10-20T09:50:46.416Z,100883.09
2022-10-20T09:53:18.908Z,100885.28
2022-10-20T09:55:46.808Z,100883.31
2022-10-20T09:58:26.209Z,100896.22
2022-10-20T10:01:03.195Z,100926.31
2022-10-20T10:03:38.254Z,100931.59
2022-10-20T10:06:18.949Z,100915.63
2022-10-20T10:08:46.340Z,100906.09
2022-10-20T10:11:20.279Z,100911.41
2022-10-20T10:13:48.528Z,100918.41
2022-10-20T10:16:16.930Z,100911.34
2022-10-20T10:19:03.656Z,100919.28
2022-10-20T10:21:41.842Z,100929.59
2022-10-20T10:24:28.188Z,100929.28
2022-10-20T10:26:55.461Z,100928.09
2022-10-20T10:29:26.410Z,100926.50
2022-10-20T10:31:58.695Z,100921.53
2022-10-20T10:34:47.886Z,100913.97
2022-10-20T10:37:15.487Z,100914.53
2022-10-20T10:39:42.320Z,100919.81
2022-10-20T10:42:14.521Z,100907.63
2022-10-20T10:44:50.951Z,100920.91
2022-10-20T10:47:20.348Z,100911.47
2022-10-20T10:49:52.907Z,100911.03
2022-10-20T10:52:25.285Z,100905.06
2022-10-20T10:55:21.312Z,100900.38
2022-10-20T10:58:01.413Z,100891.63
2022-10-20T11:00:36.268Z,100876.03
2022-10-20T11:03:11.921Z,100866.28
2022-10-20T11:05:41.292Z,100868.38
2022-10-20T11:08:07.684Z,100873.19
2022-10-20T11:10:34.107Z,100878.25
2022-10-20T11:13:00.477Z,100882.69
2022-10-20T11:15:32.676Z,100882.84
2022-10-20T11:18:02.217Z,100880.19
2022-10-20T11:20:37.872Z,100885.84
2022-10-20T11:23:16.447Z,100890.72
2022-10-20T11:26:03.059Z,100890.78
2022-10-20T11:28:32.517Z,100898.34
2022-10-20T11:30:59.382Z,100905.25
2022-10-20T11:33:36.882Z,100896.63
2022-10-20T11:36:10.826Z,100900.91
2022-10-20T11:38:42.329Z,100894.94
2022-10-20T11:41:27.581Z,100901.88
2022-10-20T11:44:06.347Z,100898.41
2022-10-20T11:46:45.170Z,100910.91
2022-10-20T11:49:14.415Z,100891.91
2022-10-20T11:51:40.779Z,100901.41
2022-10-20T11:54:26.222Z,100912.50
2022-10-20T11:56:52.577Z,100908.34
2022-10-20T11:59:23.169Z,100900.78
2022-10-20T12:01:55.521Z,100908.28
2022-10-20T12:04:21.907Z,100903.69
2022-10-20T12:06:57.373Z,100888.31
2022-10-20T12:09:32.954Z,100889.06
2022-10-20T12:12:08.711Z,100878.28
2022-10-20T12:14:43.213Z,100866.91
2022-10-20T12:17:09.557Z,100858.66
2022-10-20T12:19:36.003Z,100843.09
2022-10-20T12:22:22.629Z,100832.19
2022-10-20T12:24:52.001Z,100833.72
2022-10-20T12:27:20.359Z,100836.03
2022-10-20T12:29:51.263Z,100840.38
2022-10-20T12:32:36.808Z,100815.72
2022-10-20T12:35:23.600Z,100801.78
2022-10-20T12:37:58.086Z,100800.59
2022-10-20T12:40:43.161Z,100809.69
2022-10-20T12:43:24.086Z,100818.44
2022-10-20T12:45:50.737Z,100822.69
2022-10-20T12:48:22.470Z,100833.72
2022-10-20T12:50:50.667Z,100833.63
2022-10-20T12:53:17.107Z,100829.09
2022-10-20T12:55:53.083Z,100833.84
2022-10-20T12:58:19.428Z,100821.69
2022-10-20T13:00:45.831Z,100823.31
2022-10-20T13:03:30.894Z,100819.84
2022-10-20T13:06:00.605Z,100804.13
2022-10-20T13:08:32.013Z,100801.03
2022-10-20T13:11:18.712Z,100800.16
2022-10-20T13:13:57.575Z,100791.78
2022-10-20T13:16:29.062Z,100804.13
2022-10-20T13:18:55.600Z,100795.84
2022-10-20T13:21:22.675Z,100801.50
2022-10-20T13:24:08.602Z,100797.72
2022-10-20T13:26:45.009Z,100800.34
2022-10-20T13:29:14.056Z,100804.63
2022-10-20T13:31:40.397Z,100795.19
2022-10-20T13:34:13.101Z,100789.72
2022-10-20T13:36:46.343Z,100777.53
2022-10-20T13:39:31.670Z,100791.28
2022-10-20T13:42:15.549Z,100773.47
2022-10-20T13:44:45.381Z,100762.09
2022-10-20T13:47:34.764Z,100771.50
2022-10-20T13:52:47.331Z,100778.13
2022-10-20T13:55:36.837Z,100773.31
2022-10-20T13:58:07.441Z,100774.00
2022-10-20T14:00:36.030Z,100776.84
2022-10-20T14:03:04.441Z,100770.38
2022-10-20T14:05:36.593Z,100767.44
2022-10-20T14:08:07.552Z,100762.31
2022-10-20T14:10:33.888Z,100751.09
2022-10-20T14:13:00.910Z,100737.38
2022-10-20T14:15:32.125Z,100743.50
2022-10-20T14:18:03.570Z,100748.19
2022-10-20T14:20:31.529Z,100740.41
2022-10-20T14:22:59.616Z,100750.22
2022-10-20T14:25:26.886Z,100750.97
2022-10-20T14:27:53.930Z,100753.88
2022-10-20T14:30:20.972Z,100751.38
2022-10-20T14:32:48.144Z,100752.41
2022-10-20T14:35:23.232Z,100750.63
2022-10-20T14:38:01.733Z,100748.22
2022-10-20T14:40:33.353Z,100758.47
2022-10-20T14:43:01.892Z,100762.81
2022-10-20T14:45:28.690Z,100756.56
2022-10-20T14:47:56.470Z,100759.44
2022-10-20T14:50:24.521Z,100762.31
2022-10-20T14:52:54.024Z,100753.63
2022-10-20T14:55:40.996Z,100744.78
2022-10-20T14:58:25.930Z,100752.09
2022-10-20T15:00:52.368Z,100738.13
2022-10-20T15:03:18.978Z,100734.91
2022-10-20T15:05:46.896Z,100743.81
2022-10-20T15:08:18.045Z,100749.94
2022-10-20T15:10:44.700Z,100737.25
2022-10-20T15:13:23.596Z,100734.31
2022-10-20T15:15:53.477Z,100737.06
2022-10-20T15:18:20.832Z,100741.59
2022-10-20T15:20:47.866Z,100733.09
2022-10-20T15:23:16.231Z,100723.41
2022-10-20T15:25:45.618Z,100727.78
2022-10-20T15:28:21.092Z,100716.47
2022-10-20T15:30:47.585Z,100717.50
2022-10-20T15:33:14.306Z,100710.53
2022-10-20T15:35:44.953Z,100712.53
2022-10-20T15:38:11.436Z,100713.59
2022-10-20T15:40:37.810Z,100715.59
2022-10-20T15:43:04.669Z,100711.47
2022-10-20T15:45:34.131Z,100707.00
2022-10-20T15:48:00.484Z,100718.41
2022-10-20T15:50:26.857Z,100710.09
2022-10-20T15:52:54.162Z,100703.19
2022-10-20T15:55:24.906Z,100695.28
2022-10-20T15:57:52.268Z,100698.00
2022-10-20T16:00:19.753Z,100707.66
2022-10-20T16:02:46.583Z,100701.09
2022-10-20T16:05:13.024Z,100704.06
2022-10-20T16:07:39.542Z,100701.28
2022-10-20T16:10:07.240Z,100689.69
2022-10-20T16:12:33.824Z,100694.34
2022-10-20T16:15:00.309Z,100689.28
2022-10-20T16:17:26.681Z,100688.41
2022-10-20T16:19:53.169Z,100688.59
2022-10-20T16:22:19.577Z,100680.38
2022-10-20T16:24:49.104Z,100680.69
2022-10-20T16:27:15.961Z,100685.66
2022-10-20T16:29:45.103Z,100681.25
2022-10-20T16:32:14.011Z,100677.84
2022-10-20T16:34:40.384Z,100669.47
2022-10-20T16:37:06.841Z,100670.44
2022-10-20T16:39:33.254Z,100671.47
2022-10-20T16:41:59.630Z,100676.16
2022-10-20T16:44:26.095Z,100674.25
2022-10-20T16:46:52.479Z,100672.41
2022-10-20T16:49:18.912Z,100673.38
2022-10-20T16:51:45.317Z,100678.69
2022-10-20T16:54:11.720Z,100675.00
2022-10-20T16:56:38.091Z,100667.69
2022-10-20T16:59:04.507Z,100676.16
2022-10-20T17:01:31.841Z,100684.06
2022-10-20T17:03:58.420Z,100667.78
2022-10-20T17:06:25.567Z,100677.00
2022-10-20T17:08:52.447Z,100670.13
2022-10-20T17:11:23.884Z,100677.63
2022-10-20T17:13:50.689Z,100674.03
2022-10-20T17:16:18.593Z,100664.72
2022-10-20T17:18:45.161Z,100668.41
2022-10-20T17:21:12.165Z,100673.16
2022-10-20T17:23:42.427Z,100677.50
2022-10-20T17:26:11.220Z,100683.53
2022-10-20T17:28:37.917Z,100683.84
2022-10-20T17:31:08.153Z,100681.69
2022-10-20T17:33:35.245Z,100679.81
2022-10-20T17:36:01.722Z,100673.06
2022-10-20T17:38:28.746Z,100680.78
2022-10-20T17:40:55.355Z,100680.69
2022-10-20T17:43:22.016Z,100680.88
2022-10-20T17:45:58.140Z,100675.69
2022-10-20T17:48:24.791Z,100677.47
2022-10-20T17:51:04.911Z,100685.50
2022-10-20T17:53:32.232Z,100689.13
2022-10-20T17:56:02.548Z,100684.16
2022-10-20T17:58:29.246Z,100686.81
2022-10-20T18:00:57.037Z,100678.47
2022-10-20T18:03:23.715Z,100659.66
2022-10-20T18:05:50.144Z,100670.88
2022-10-20T18:08:16.498Z,100675.28
2022-10-20T18:10:43.875Z,100674.44
2022-10-20T18:13:10.612Z,100662.22
2022-10-20T18:15:41.210Z,100663.03
2022-10-20T18:18:07.572Z,100659.34
2022-10-20T18:20:34.478Z,100661.56
2022-10-20T18:23:00.911Z,100666.63
2022-10-20T18:25:27.362Z,100652.50
2022-10-20T18:27:54.109Z,100643.72
2022-10-20T18:30:20.507Z,100640.44
2022-10-20T18:32:46.870Z,100647.75
2022-10-20T18:35:13.328Z,100641.72
2022-10-20T18:37:40.104Z,100637.28
2022-10-20T18:40:07.849Z,100643.72
2022-10-20T18:42:34.243Z,100637.69
2022-10-20T18:45:00.593Z,100617.19
2022-10-20T18:47:27.024Z,100620.59
2022-10-20T18:49:53.452Z,100619.88
2022-10-20T18:52:19.945Z,100626.63
2022-10-20T18:54:46.360Z,100630.94
2022-10-20T18:57:12.724Z,100630.44
2022-10-20T18:59:39.211Z,100632.53
2022-10-20T19:02:05.720Z,100629.25
2022-10-20T19:04:32.251Z,100627.56
2022-10-20T19:06:58.657Z,100621.97
2022-10-20T19:09:25.024Z,100617.63
2022-10-20T19:11:51.608Z,100614.78
2022-10-20T19:14:18.058Z,100622.28
2022-10-20T19:16:46.067Z,100626.91
2022-10-20T19:19:12.603Z,100625.34
2022-10-20T19:21:39.349Z,100608.66
2022-10-20T19:24:13.867Z,100601.47
2022-10-20T19:26:52.515Z,100595.47
2022-10-20T19:29:28.853Z,100596.31
2022-10-20T19:31:56.958Z,100590.50
2022-10-20T19:34:27.680Z,100585.94
2022-10-20T19:36:54.610Z,100584.56
2022-10-20T19:41:56.898Z,100593.22
2022-10-20T19:44:23.337Z,100583.53
2022-10-20T19:46:53.826Z,100589.00
2022-10-20T19:49:20.959Z,100584.34
2022-10-20T19:51:47.645Z,100578.13
2022-10-20T19:54:14.801Z,100569.47
2022-10-20T19:56:41.734Z,100564.41
2022-10-20T19:59:08.222Z,100554.16
2022-10-20T20:01:35.014Z,100549.50
2022-10-20T20:04:01.489Z,100550.97
2022-10-20T20:06:28.800Z,100544.22
2022-10-20T20:08:59.378Z,100539.78
2022-10-20T20:11:29.385Z,100542.88
2022-10-20T20:14:00.303Z,100532.06
2022-10-20T20:16:27.158Z,100534.50
2022-10-20T20:18:53.916Z,100530.72
2022-10-20T20:21:20.440Z,100534.72
2022-10-20T20:23:58.704Z,100519.28
2022-10-20T20:26:25.867Z,100528.16
2022-10-20T20:28:53.882Z,100540.22
2022-10-20T20:31:21.015Z,100533.22
2022-10-20T20:33:47.515Z,100532.31
2022-10-20T20:36:13.865Z,100535.88
2022-10-20T20:38:41.407Z,100540.13
2022-10-20T20:41:10.499Z,100535.88
2022-10-20T20:43:37.322Z,100528.50
2022-10-20T20:46:04.945Z,100528.19
2022-10-20T20:48:31.566Z,100534.19
2022-10-20T20:50:58.414Z,100516.88
2022-10-20T20:53:25.053Z,100516.56
2022-10-20T20:55:52.260Z,100518.06
2022-10-20T20:58:18.712Z,100512.25
2022-10-20T21:00:45.302Z,100510.09
2022-10-20T21:03:11.779Z,100518.38
2022-10-20T21:05:38.186Z,100514.44
2022-10-20T21:08:05.383Z,100522.16
2022-10-20T21:10:32.229Z,100516.47
2022-10-20T21:12:58.588Z,100521.31
2022-10-20T21:15:24.975Z,100523.00
2022-10-20T21:17:51.322Z,100519.72
2022-10-20T21:20:17.726Z,100520.69
2022-10-20T21:22:44.080Z,100523.44
2022-10-20T21:25:10.505Z,100526.19
2022-10-20T21:27:36.933Z,100523.00
2022-10-20T21:30:03.478Z,100516.97
2022-10-20T21:32:29.847Z,100513.91
2022-10-20T21:34:56.250Z,100520.34
2022-10-20T21:37:22.670Z,100525.66
2022-10-20T21:39:49.042Z,100531.47
2022-10-20T21:42:15.496Z,100531.13
2022-10-20T21:44:41.892Z,100538.81
2022-10-20T21:47:08.236Z,100540.53
2022-10-20T21:49:34.707Z,100535.97
2022-10-20T21:52:01.135Z,100544.22
2022-10-20T21:54:28.619Z,100537.97
2022-10-20T21:56:55.590Z,100542.63
2022-10-20T21:59:24.060Z,100544.81
2022-10-20T22:01:51.468Z,100552.75
2022-10-20T22:04:19.095Z,100538.91
2022-10-20T22:06:45.525Z,100546.28
2022-10-20T22:09:12.682Z,100543.69
2022-10-20T22:11:40.864Z,100553.56
2022-10-20T22:14:07.242Z,100541.09
2022-10-20T22:16:35.205Z,100535.81
2022-10-20T22:19:03.379Z,100528.72
2022-10-20T22:21:30.458Z,100538.78
2022-10-20T22:23:57.549Z,100545.88
2022-10-20T22:26:25.923Z,100532.84
2022-10-20T22:28:52.539Z,100551.88
2022-10-20T22:31:18.973Z,100564.47
2022-10-20T22:33:45.384Z,100575.69
2022-10-20T22:36:11.778Z,100588.78
2022-10-20T22:38:38.161Z,100591.66
2022-10-20T22:41:04.699Z,100597.78
2022-10-20T22:43:31.075Z,100587.53
2022-10-20T22:45:57.776Z,100588.38
2022-10-20T22:48:24.705Z,100573.59
2022-10-20T22:50:51.135Z,100555.66
2022-10-20T22:53:17.670Z,100539.63
2022-10-20T22:55:44.433Z,100550.03
2022-10-20T22:58:11.058Z,100548.34
2022-10-20T23:00:40.682Z,100550.25
2022-10-20T23:03:07.138Z,100543.06
2022-10-20T23:05:33.991Z,100535.16
2022-10-20T23:08:00.487Z,100530.63
2022-10-20T23:10:26.860Z,100521.13
2022-10-20T23:12:53.296Z,100507.41
2022-10-20T23:15:19.891Z,100498.53
2022-10-20T23:17:46.964Z,100497.97
2022-10-20T23:20:13.355Z,100507.59
2022-10-20T23:22:39.766Z,100501.28
2022-10-20T23:25:06.373Z,100498.31
2022-10-20T23:27:33.474Z,100505.50
2022-10-20T23:29:59.834Z,100507.41
2022-10-20T23:32:26.281Z,100513.22
2022-10-20T23:34:52.680Z,100506.97
2022-10-20T23:37:20.952Z,100493.56
2022-10-20T23:39:47.358Z,100482.28
2022-10-20T23:42:13.724Z,100471.47
2022-10-20T23:44:40.232Z,100464.09
2022-10-20T23:47:06.632Z,100447.69
2022-10-20T23:49:32.989Z,100445.91
2022-10-20T23:51:59.337Z,100447.19
2022-10-20T23:54:25.681Z,100451.19
2022-10-20T23:56:52.020Z,100448.75
2022-10-20T23:59:18.392Z,100459.94
